createdAt,value
2022-08-08T00:02:03.446Z,5.75
2022-08-08T00:04:40.299Z,4.43
2022-08-08T00:07:21.665Z,4.25
2022-08-08T00:10:02.669Z,4.55
2022-08-08T00:12:34.604Z,4.70
2022-08-08T00:15:12.969Z,4.82
2022-08-08T00:18:02.043Z,4.63
2022-08-08T00:20:39.604Z,4.03
2022-08-08T00:23:16.020Z,4.65
2022-08-08T00:25:50.809Z,3.95
2022-08-08T00:28:35.755Z,4.00
2022-08-08T00:32:28.855Z,4.13
2022-08-08T00:34:46.077Z,4.25
2022-08-08T00:37:47.413Z,4.32
2022-08-08T00:41:11.040Z,4.22
2022-08-08T00:44:08.522Z,4.13
2022-08-08T00:46:58.564Z,4.57
2022-08-08T00:50:09.524Z,4.15
2022-08-08T00:52:54.038Z,4.20
2022-08-08T00:56:03.062Z,3.78
2022-08-08T00:59:14.559Z,4.32
2022-08-08T01:02:01.983Z,3.90
2022-08-08T01:05:04.272Z,4.40
2022-08-08T01:08:19.288Z,4.20
2022-08-08T01:11:30.434Z,4.70
2022-08-08T01:14:54.206Z,4.53
2022-08-08T01:18:02.497Z,4.68
2022-08-08T01:20:49.425Z,4.47
2022-08-08T01:24:13.581Z,4.63
2022-08-08T01:27:24.283Z,4.28
2022-08-08T01:30:45.854Z,4.10
2022-08-08T01:34:01.515Z,4.22
2022-08-08T01:37:13.539Z,4.38
2022-08-08T01:40:02.762Z,4.28
2022-08-08T01:42:38.150Z,4.35
2022-08-08T01:45:32.471Z,4.40
2022-08-08T01:48:23.276Z,4.28
2022-08-08T01:52:00.133Z,3.90
2022-08-08T01:55:45.066Z,4.03
2022-08-08T01:57:49.018Z,4.65
2022-08-08T02:00:23.278Z,5.13
2022-08-08T02:03:54.470Z,4.40
2022-08-08T02:06:32.358Z,4.95
2022-08-08T02:10:02.580Z,4.55
2022-08-08T02:12:21.626Z,4.38
2022-08-08T02:15:00.923Z,4.35
2022-08-08T02:17:54.794Z,4.72
2022-08-08T02:21:01.246Z,4.47
2022-08-08T02:23:31.709Z,4.63
2022-08-08T02:26:10.272Z,4.80
2022-08-08T02:28:54.348Z,4.57
2022-08-08T02:31:58.366Z,4.28
2022-08-08T02:35:08.616Z,4.50
2022-08-08T02:38:13.661Z,4.28
2022-08-08T02:40:50.017Z,4.18
2022-08-08T02:44:43.211Z,4.65
2022-08-08T02:47:10.191Z,4.82
2022-08-08T02:50:04.968Z,5.00
2022-08-08T02:53:01.044Z,4.63
2022-08-08T02:56:10.061Z,4.55
2022-08-08T02:59:26.195Z,4.20
2022-08-08T03:02:37.598Z,4.30
2022-08-08T03:05:46.881Z,4.70
2022-08-08T03:09:05.512Z,4.05
2022-08-08T03:12:13.840Z,3.97
2022-08-08T03:16:01.026Z,4.30
2022-08-08T03:17:59.729Z,3.75
2022-08-08T03:20:51.486Z,4.40
2022-08-08T03:23:56.418Z,4.30
2022-08-08T03:26:27.337Z,3.85
2022-08-08T03:29:17.169Z,4.05
2022-08-08T03:32:08.911Z,4.53
2022-08-08T03:34:40.458Z,4.82
2022-08-08T03:37:59.036Z,5.28
2022-08-08T03:40:04.122Z,5.00
2022-08-08T03:42:34.295Z,4.95
2022-08-08T03:46:03.175Z,4.80
2022-08-08T03:48:02.544Z,5.07
2022-08-08T03:50:34.368Z,4.70
2022-08-08T03:53:08.449Z,4.32
2022-08-08T03:55:56.566Z,4.53
2022-08-08T03:58:34.566Z,4.55
2022-08-08T04:01:23.030Z,5.03
2022-08-08T04:03:58.088Z,4.50
2022-08-08T04:06:30.806Z,4.78
2022-08-08T04:09:11.083Z,4.90
2022-08-08T04:11:59.190Z,5.05
2022-08-08T04:14:38.348Z,5.35
2022-08-08T04:17:22.618Z,4.65
2022-08-08T04:19:58.407Z,5.13
2022-08-08T04:22:29.522Z,5.30
2022-08-08T04:24:58.518Z,4.80
2022-08-08T04:28:01.677Z,5.07
2022-08-08T04:30:19.731Z,4.95
2022-08-08T04:32:52.274Z,5.18
2022-08-08T04:35:24.154Z,4.78
2022-08-08T04:37:54.912Z,5.53
2022-08-08T04:40:29.999Z,5.22
2022-08-08T04:43:01.628Z,5.20
2022-08-08T04:45:50.957Z,4.88
2022-08-08T04:48:21.948Z,5.18
2022-08-08T04:50:50.952Z,5.68
2022-08-08T04:54:36.157Z,4.57
2022-08-08T04:56:19.619Z,5.20
2022-08-08T04:58:50.663Z,4.97
2022-08-08T05:01:20.369Z,5.93
2022-08-08T05:04:11.403Z,5.82
2022-08-08T05:06:43.307Z,5.82
2022-08-08T05:09:13.300Z,6.05
2022-08-08T05:11:47.693Z,5.65
2022-08-08T05:14:20.562Z,5.57
2022-08-08T05:17:00.585Z,5.60
2022-08-08T05:20:12.762Z,5.40
2022-08-08T05:22:29.658Z,6.28
2022-08-08T05:24:59.868Z,5.13
2022-08-08T05:27:33.393Z,5.30
2022-08-08T05:30:04.876Z,5.85
2022-08-08T05:32:42.499Z,5.95
2022-08-08T05:35:15.514Z,5.10
2022-08-08T05:37:54.519Z,18.08
2022-08-08T05:40:35.261Z,20.63
2022-08-08T05:43:38.415Z,16.63
2022-08-08T05:46:08.615Z,10.50
2022-08-08T05:48:41.747Z,8.02
2022-08-08T05:51:15.729Z,10.57
2022-08-08T05:54:26.013Z,9.68
2022-08-08T05:56:47.622Z,8.95
2022-08-08T05:59:59.138Z,7.35
2022-08-08T06:02:40.888Z,7.28
2022-08-08T06:05:33.772Z,7.20
2022-08-08T06:08:10.532Z,6.30
2022-08-08T06:10:55.930Z,7.47
2022-08-08T06:13:26.653Z,6.32
2022-08-08T06:16:04.051Z,7.53
2022-08-08T06:19:01.943Z,6.63
2022-08-08T06:21:51.823Z,6.60
2022-08-08T06:24:31.135Z,5.95
2022-08-08T06:27:06.852Z,4.75
2022-08-08T06:29:56.565Z,5.18
2022-08-08T06:32:31.350Z,4.97
2022-08-08T06:36:00.636Z,5.60
2022-08-08T06:38:09.348Z,5.78
2022-08-08T06:40:48.686Z,5.68
2022-08-08T06:43:28.515Z,5.53
2022-08-08T06:46:08.985Z,4.88
2022-08-08T06:48:39.031Z,4.90
2022-08-08T06:51:12.696Z,4.78
2022-08-08T06:53:51.176Z,4.20
2022-08-08T06:56:31.050Z,4.55
2022-08-08T06:59:00.313Z,4.95
2022-08-08T07:02:17.649Z,4.65
2022-08-08T07:04:40.634Z,4.57
2022-08-08T07:07:21.085Z,4.80
2022-08-08T07:09:59.505Z,5.60
2022-08-08T07:12:39.605Z,4.75
2022-08-08T07:15:32.188Z,6.85
2022-08-08T07:18:36.725Z,6.22
2022-08-08T07:21:02.192Z,5.03
2022-08-08T07:24:01.263Z,5.35
2022-08-08T07:26:36.230Z,3.80
2022-08-08T07:29:11.492Z,7.50
2022-08-08T07:31:44.017Z,5.70
2022-08-08T07:34:20.371Z,5.55
2022-08-08T07:37:11.936Z,5.22
2022-08-08T07:39:55.890Z,4.35
2022-08-08T07:42:32.853Z,4.53
2022-08-08T07:45:03.416Z,4.20
2022-08-08T07:47:39.244Z,4.90
2022-08-08T07:50:09.831Z,4.10
2022-08-08T07:52:43.760Z,4.38
2022-08-08T07:55:20.134Z,4.13
2022-08-08T07:58:01.821Z,4.00
2022-08-08T08:00:38.322Z,2.83
2022-08-08T08:03:20.673Z,3.47
2022-08-08T08:05:57.556Z,3.80
2022-08-08T08:08:39.199Z,5.07
2022-08-08T08:11:20.954Z,3.42
2022-08-08T08:14:09.591Z,3.88
2022-08-08T08:16:50.603Z,3.88
2022-08-08T08:19:22.825Z,4.90
2022-08-08T08:21:57.412Z,3.65
2022-08-08T08:24:52.645Z,3.80
2022-08-08T08:27:24.513Z,4.03
2022-08-08T08:29:59.349Z,3.67
2022-08-08T08:32:35.903Z,2.78
2022-08-08T08:35:15.351Z,2.78
2022-08-08T08:38:13.249Z,2.75
2022-08-08T08:40:35.131Z,2.50
2022-08-08T08:43:15.250Z,2.75
2022-08-08T08:45:47.930Z,3.22
2022-08-08T08:48:19.530Z,2.95
2022-08-08T08:50:52.293Z,2.45
2022-08-08T08:53:55.509Z,2.53
2022-08-08T08:56:23.892Z,2.25
2022-08-08T08:58:58.914Z,2.72
2022-08-08T09:01:36.005Z,2.20
2022-08-08T09:04:31.696Z,3.15
2022-08-08T09:07:03.275Z,2.28
2022-08-08T09:09:47.614Z,2.72
2022-08-08T09:12:23.661Z,2.80
2022-08-08T09:14:56.244Z,2.70
2022-08-08T09:17:41.866Z,3.13
2022-08-08T09:21:59.700Z,3.30
2022-08-08T09:23:11.542Z,2.92
2022-08-08T09:25:57.751Z,2.90
2022-08-08T09:28:37.338Z,3.53
2022-08-08T09:31:16.352Z,3.33
2022-08-08T09:34:15.442Z,3.70
2022-08-08T09:36:51.885Z,3.30
2022-08-08T09:39:43.798Z,3.50
2022-08-08T09:42:21.698Z,2.75
2022-08-08T09:45:15.376Z,2.45
2022-08-08T09:48:03.977Z,2.55
2022-08-08T09:50:43.961Z,2.13
2022-08-08T09:53:24.703Z,1.92
2022-08-08T09:56:14.437Z,3.20
2022-08-08T09:59:11.175Z,2.47
2022-08-08T10:02:03.096Z,3.22
2022-08-08T10:04:47.801Z,2.72
2022-08-08T10:07:17.929Z,2.25
2022-08-08T10:10:00.729Z,2.50
2022-08-08T10:12:37.913Z,2.88
2022-08-08T10:15:18.274Z,2.40
2022-08-08T10:18:05.713Z,2.30
2022-08-08T10:20:51.207Z,2.25
2022-08-08T10:23:44.252Z,2.92
2022-08-08T10:26:29.977Z,3.70
2022-08-08T10:29:04.757Z,2.40
2022-08-08T10:32:04.015Z,3.50
2022-08-08T10:34:36.294Z,2.40
2022-08-08T10:37:09.100Z,2.47
2022-08-08T10:39:54.504Z,2.40
2022-08-08T10:42:27.433Z,2.20
2022-08-08T10:45:02.693Z,1.88
2022-08-08T10:47:43.104Z,2.25
2022-08-08T10:50:15.859Z,2.00
2022-08-08T10:52:45.615Z,2.30
2022-08-08T10:55:41.406Z,1.73
2022-08-08T10:58:06.559Z,2.35
2022-08-08T11:00:48.570Z,2.03
2022-08-08T11:03:36.812Z,2.22
2022-08-08T11:06:12.734Z,2.35
2022-08-08T11:08:53.263Z,2.42
2022-08-08T11:11:59.850Z,1.90
2022-08-08T11:14:16.361Z,2.40
2022-08-08T11:16:47.389Z,2.45
2022-08-08T11:19:18.901Z,2.10
2022-08-08T11:21:55.328Z,2.47
2022-08-08T11:24:29.031Z,2.25
2022-08-08T11:27:10.345Z,2.10
2022-08-08T11:29:50.730Z,2.08
2022-08-08T11:32:29.380Z,2.28
2022-08-08T11:35:29.501Z,2.60
2022-08-08T11:38:36.888Z,2.25
2022-08-08T11:40:51.715Z,2.45
2022-08-08T11:43:24.352Z,2.10
2022-08-08T11:46:09.624Z,2.40
2022-08-08T11:48:44.878Z,2.30
2022-08-08T11:51:30.310Z,1.83
2022-08-08T11:54:31.583Z,2.55
2022-08-08T11:56:56.388Z,2.50
2022-08-08T12:00:02.209Z,2.30
2022-08-08T12:02:33.392Z,1.77
2022-08-08T12:05:04.695Z,2.40
2022-08-08T12:07:49.824Z,2.63
2022-08-08T12:10:21.294Z,2.60
2022-08-08T12:12:54.686Z,3.00
2022-08-08T12:15:29.256Z,2.63
2022-08-08T12:17:57.752Z,3.85
2022-08-08T12:20:38.961Z,3.03
2022-08-08T12:23:07.374Z,2.92
2022-08-08T12:25:55.172Z,2.15
2022-08-08T12:28:26.373Z,1.70
2022-08-08T12:31:05.905Z,1.60
2022-08-08T12:33:37.113Z,1.92
2022-08-08T12:36:16.695Z,2.25
2022-08-08T12:38:49.894Z,2.15
2022-08-08T12:41:33.548Z,2.53
2022-08-08T12:44:09.311Z,2.40
2022-08-08T12:46:38.134Z,2.58
2022-08-08T12:49:29.622Z,2.25
2022-08-08T12:52:00.340Z,2.28
2022-08-08T12:54:33.404Z,1.90
2022-08-08T12:57:17.112Z,1.92
2022-08-08T13:00:04.668Z,2.17
2022-08-08T13:02:37.916Z,2.95
2022-08-08T13:05:26.914Z,2.83
2022-08-08T13:08:16.290Z,2.97
2022-08-08T13:10:56.154Z,2.90
2022-08-08T13:13:34.633Z,2.70
2022-08-08T13:16:21.326Z,2.35
2022-08-08T13:18:57.230Z,1.98
2022-08-08T13:21:49.085Z,1.70
2022-08-08T13:24:18.711Z,2.38
2022-08-08T13:27:01.966Z,2.35
2022-08-08T13:29:40.806Z,2.40
2022-08-08T13:32:10.949Z,2.03
2022-08-08T13:34:41.360Z,2.53
2022-08-08T13:37:19.846Z,2.42
2022-08-08T13:39:57.970Z,3.25
2022-08-08T13:42:27.305Z,2.20
2022-08-08T13:44:56.781Z,3.05
2022-08-08T13:47:28.578Z,3.42
2022-08-08T13:50:39.780Z,2.30
2022-08-08T13:52:52.130Z,2.45
2022-08-08T13:55:29.532Z,2.08
2022-08-08T13:58:07.924Z,2.33
2022-08-08T14:00:45.268Z,2.05
2022-08-08T14:03:46.979Z,3.40
2022-08-08T14:06:20.600Z,2.22
2022-08-08T14:09:24.973Z,2.30
2022-08-08T14:11:51.573Z,2.20
2022-08-08T14:14:21.059Z,3.25
2022-08-08T14:16:55.654Z,2.65
2022-08-08T14:19:57.652Z,2.25
2022-08-08T14:22:27.997Z,2.10
2022-08-08T14:25:00.147Z,2.42
2022-08-08T14:27:33.316Z,2.28
2022-08-08T14:30:17.753Z,2.05
2022-08-08T14:32:53.288Z,2.22
2022-08-08T14:35:35.500Z,2.53
2022-08-08T14:38:33.553Z,2.45
2022-08-08T14:40:59.541Z,2.15
2022-08-08T14:44:02.641Z,2.25
2022-08-08T14:46:18.661Z,2.28
2022-08-08T14:49:02.509Z,3.05
2022-08-08T14:51:52.073Z,2.55
2022-08-08T14:54:29.017Z,2.63
2022-08-08T14:56:58.501Z,2.47
2022-08-08T14:59:44.186Z,2.30
2022-08-08T15:02:25.582Z,2.30
2022-08-08T15:05:10.523Z,3.08
2022-08-08T15:07:41.797Z,2.60
2022-08-08T15:10:13.008Z,2.22
2022-08-08T15:12:42.016Z,2.30
2022-08-08T15:15:11.550Z,2.38
2022-08-08T15:17:48.706Z,2.45
2022-08-08T15:20:18.699Z,2.47
2022-08-08T15:22:48.880Z,2.15
2022-08-08T15:25:26.099Z,1.95
2022-08-08T15:28:32.604Z,2.58
2022-08-08T15:30:48.791Z,2.63
2022-08-08T15:33:20.926Z,3.20
2022-08-08T15:36:03.968Z,2.70
2022-08-08T15:38:33.612Z,2.40
2022-08-08T15:41:02.099Z,2.20
2022-08-08T15:43:35.645Z,2.08
2022-08-08T15:46:05.001Z,1.92
2022-08-08T15:48:33.447Z,3.10
2022-08-08T15:51:07.070Z,2.60
2022-08-08T15:53:49.266Z,2.30
2022-08-08T15:56:20.275Z,2.72
2022-08-08T15:58:50.249Z,2.58
2022-08-08T16:01:20.925Z,2.40
2022-08-08T16:03:51.812Z,2.22
2022-08-08T16:06:28.733Z,2.78
2022-08-08T16:13:03.203Z,3.65
2022-08-08T16:13:09.022Z,4.65
2022-08-08T16:14:38.109Z,3.67
2022-08-08T16:17:06.727Z,3.38
2022-08-08T16:20:00.191Z,3.90
2022-08-08T16:22:41.425Z,5.07
2022-08-08T16:25:11.571Z,4.30
2022-08-08T16:27:43.623Z,3.42
2022-08-08T16:30:36.441Z,3.20
2022-08-08T16:33:05.772Z,2.90
2022-08-08T16:35:34.308Z,2.63
2022-08-08T16:38:02.660Z,3.38
2022-08-08T16:40:33.642Z,4.63
2022-08-08T16:43:01.795Z,7.57
2022-08-08T16:46:43.114Z,6.22
2022-08-08T16:48:19.560Z,16.25
2022-08-08T16:50:47.740Z,57.55
2022-08-08T16:55:06.011Z,43.42
2022-08-08T16:56:08.833Z,34.75
2022-08-08T16:58:42.808Z,21.50
2022-08-08T17:01:14.742Z,13.95
2022-08-08T17:04:00.456Z,8.82
2022-08-08T17:06:37.592Z,6.18
2022-08-08T17:09:15.095Z,4.43
2022-08-08T17:11:49.081Z,3.45
2022-08-08T17:14:27.230Z,3.13
2022-08-08T17:16:58.943Z,3.47
2022-08-08T17:19:31.912Z,3.47
2022-08-08T17:22:10.347Z,2.88
2022-08-08T17:24:38.730Z,2.97
2022-08-08T17:27:08.267Z,2.90
2022-08-08T17:29:43.428Z,2.65
2022-08-08T17:32:12.099Z,3.05
2022-08-08T17:35:00.169Z,2.97
2022-08-08T17:37:29.279Z,2.58
2022-08-08T17:40:10.451Z,3.08
2022-08-08T17:42:47.335Z,2.97
2022-08-08T17:45:22.476Z,3.20
2022-08-08T17:47:53.982Z,2.65
2022-08-08T17:50:23.596Z,3.25
2022-08-08T17:52:52.793Z,6.78
2022-08-08T17:56:06.931Z,16.98
2022-08-08T17:58:12.335Z,37.33
2022-08-08T18:00:41.683Z,31.48
2022-08-08T18:03:13.283Z,13.52
2022-08-08T18:05:48.169Z,9.80
2022-08-08T18:08:37.898Z,7.10
2022-08-08T18:11:07.457Z,5.47
2022-08-08T18:13:41.349Z,5.32
2022-08-08T18:16:12.647Z,5.65
2022-08-08T18:18:42.637Z,5.03
2022-08-08T18:21:34.866Z,5.88
2022-08-08T18:24:03.053Z,4.75
2022-08-08T18:26:31.897Z,4.35
2022-08-08T18:29:03.065Z,4.10
2022-08-08T18:31:34.540Z,4.15
2022-08-08T18:34:11.309Z,3.35
2022-08-08T18:36:55.557Z,4.30
2022-08-08T18:39:27.694Z,9.23
2022-08-08T18:42:01.140Z,25.42
2022-08-08T18:44:35.945Z,21.80
2022-08-08T18:47:05.153Z,29.35
2022-08-08T18:49:57.751Z,22.80
2022-08-08T18:52:23.460Z,19.45
2022-08-08T18:55:00.588Z,20.00
2022-08-08T18:57:41.978Z,19.48
2022-08-08T19:00:16.909Z,17.73
2022-08-08T19:02:55.893Z,27.08
2022-08-08T19:05:31.732Z,30.85
2022-08-08T19:08:24.591Z,21.27
2022-08-08T19:10:57.703Z,13.98
2022-08-08T19:13:38.244Z,10.23
2022-08-08T19:16:19.049Z,8.20
2022-08-08T19:19:00.457Z,7.35
2022-08-08T19:21:33.407Z,6.10
2022-08-08T19:24:42.018Z,5.47
2022-08-08T19:27:07.105Z,4.65
2022-08-08T19:29:42.284Z,4.43
2022-08-08T19:32:19.662Z,4.30
2022-08-08T19:34:51.729Z,4.20
2022-08-08T19:37:42.261Z,3.92
2022-08-08T19:40:16.291Z,5.38
2022-08-08T19:42:45.644Z,11.85
2022-08-08T19:45:59.772Z,20.30
2022-08-08T19:48:04.204Z,20.65
2022-08-08T19:50:34.066Z,15.90
2022-08-08T19:53:02.372Z,13.70
2022-08-08T19:55:33.781Z,9.25
2022-08-08T19:58:02.760Z,9.98
2022-08-08T20:00:34.429Z,9.60
2022-08-08T20:03:15.262Z,7.47
2022-08-08T20:06:14.931Z,12.85
2022-08-08T20:08:48.105Z,13.10
2022-08-08T20:11:18.560Z,12.10
2022-08-08T20:14:32.241Z,9.52
2022-08-08T20:16:40.773Z,8.32
2022-08-08T20:19:11.021Z,6.32
2022-08-08T20:21:39.697Z,5.45
2022-08-08T20:24:08.792Z,4.90
2022-08-08T20:26:41.669Z,4.95
2022-08-08T20:29:16.084Z,4.18
2022-08-08T20:32:02.809Z,4.07
2022-08-08T20:34:35.281Z,3.38
2022-08-08T20:37:07.168Z,3.53
2022-08-08T20:39:41.673Z,4.15
2022-08-08T20:42:28.756Z,4.10
2022-08-08T20:44:58.793Z,3.83
2022-08-08T20:47:35.936Z,3.67
2022-08-08T20:50:09.949Z,4.32
2022-08-08T20:52:39.493Z,4.38
2022-08-08T20:55:16.535Z,4.22
2022-08-08T20:57:51.097Z,17.40
2022-08-08T21:00:19.874Z,14.18
2022-08-08T21:02:52.481Z,9.65
2022-08-08T21:05:23.338Z,14.68
2022-08-08T21:08:34.350Z,21.45
2022-08-08T21:10:41.309Z,23.75
2022-08-08T21:13:10.185Z,30.40
2022-08-08T21:16:05.149Z,22.55
2022-08-08T21:18:27.907Z,24.83
2022-08-08T21:20:57.933Z,31.75
2022-08-08T21:24:01.887Z,27.95
2022-08-08T21:26:21.070Z,30.30
2022-08-08T21:28:56.051Z,32.88
2022-08-08T21:31:58.626Z,31.20
2022-08-08T21:34:18.759Z,33.63
2022-08-08T21:36:50.339Z,20.67
2022-08-08T21:39:21.983Z,14.68
2022-08-08T21:41:51.367Z,18.90
2022-08-08T21:44:22.312Z,30.58
2022-08-08T21:48:05.919Z,30.88
2022-08-08T21:49:39.428Z,22.67
2022-08-08T21:54:23.063Z,14.15
2022-08-08T21:55:04.135Z,21.67
2022-08-08T21:57:43.028Z,37.83
2022-08-08T22:00:26.140Z,30.23
2022-08-08T22:02:54.652Z,45.60
2022-08-08T22:05:23.475Z,46.88
2022-08-08T22:07:53.136Z,35.33
2022-08-08T22:10:32.616Z,21.33
2022-08-08T22:13:17.292Z,13.38
2022-08-08T22:15:59.135Z,8.10
2022-08-08T22:18:30.979Z,6.75
2022-08-08T22:21:08.329Z,5.72
2022-08-08T22:23:49.530Z,5.85
2022-08-08T22:26:29.514Z,5.63
2022-08-08T22:29:13.989Z,5.30
2022-08-08T22:32:02.114Z,5.28
2022-08-08T22:34:32.893Z,5.32
2022-08-08T22:37:03.287Z,4.68
2022-08-08T22:39:45.804Z,5.43
2022-08-08T22:42:27.419Z,4.90
2022-08-08T22:45:00.031Z,5.57
2022-08-08T22:47:37.463Z,5.45
2022-08-08T22:50:25.250Z,5.53
2022-08-08T22:53:22.439Z,5.65
2022-08-08T22:55:58.065Z,5.05
2022-08-08T22:58:34.100Z,5.70
2022-08-08T23:01:30.247Z,4.80
2022-08-08T23:03:54.599Z,5.60
2022-08-08T23:06:24.112Z,5.07
2022-08-08T23:08:55.904Z,5.30
2022-08-08T23:11:30.791Z,5.57
2022-08-08T23:14:19.118Z,4.45
2022-08-08T23:16:53.249Z,5.80
2022-08-08T23:19:26.392Z,5.53
2022-08-08T23:21:54.783Z,5.97
2022-08-08T23:24:23.735Z,6.03
2022-08-08T23:26:56.087Z,5.13
2022-08-08T23:29:27.081Z,5.00
2022-08-08T23:31:58.620Z,5.35
2022-08-08T23:34:29.382Z,6.20
2022-08-08T23:36:59.888Z,5.68
2022-08-08T23:39:41.447Z,5.22
2022-08-08T23:42:21.258Z,5.15
2022-08-08T23:44:50.181Z,5.93
2022-08-08T23:48:59.777Z,5.38
2022-08-08T23:50:14.950Z,6.05
2022-08-08T23:52:59.178Z,6.13
2022-08-08T23:55:42.211Z,5.00
2022-08-08T23:58:22.332Z,5.70
